Time;durP1;ratioP1;P1;durP2;ratioP2;P2;SDS_P1;SDS_P2;PMS_P1;PMS_P2;Temp;Humidity;BMP_temperature;BMP_pressure;BME280_temperature;BME280_humidity;BME280_pressure;Samples;Min_cycle;Max_cycle;Signal;HPM_P1;HPM_P2
2022/09/08 00:00:43;;;;;;;;;;;;;;;21.61;39.99;99910.19;4971417;28;19941;-75
2022/09/08 00:03:09;;;;;;;;;;;;;;;21.56;40.24;99912.78;4969006;28;19971;-75
2022/09/08 00:05:38;;;;;;;;;;;;;;;21.49;39.80;99907.53;4971388;28;20401;-75
2022/09/08 00:08:03;;;;;;;;;;;;;;;21.48;40.20;99908.56;4971367;28;19969;-75
2022/09/08 00:10:30;;;;;;;;;;;;;;;21.48;40.74;99908.56;4971333;28;19951;-75
2022/09/08 00:12:55;;;;;;;;;;;;;;;21.53;39.64;99908.69;4971361;28;19921;-75
2022/09/08 00:15:20;;;;;;;;;;;;;;;21.58;40.26;99909.84;4971517;28;19914;-76
2022/09/08 00:17:46;;;;;;;;;;;;;;;21.53;40.83;99914.06;4971158;28;20446;-75
2022/09/08 00:20:12;;;;;;;;;;;;;;;21.47;40.46;99903.44;4969793;28;20476;-75
2022/09/08 00:22:37;;;;;;;;;;;;;;;21.46;40.65;99902.63;4971046;28;19914;-75
2022/09/08 00:25:03;;;;;;;;;;;;;;;21.48;40.73;99902.38;4970819;28;19914;-75
2022/09/08 00:27:28;;;;;;;;;;;;;;;21.45;40.27;99900.19;4970990;28;19976;-75
2022/09/08 00:29:53;;;;;;;;;;;;;;;21.47;40.33;99900.75;4969599;28;20393;-75
2022/09/08 00:32:20;;;;;;;;;;;;;;;21.47;40.71;99901.56;4969782;28;19918;-76
2022/09/08 00:34:45;;;;;;;;;;;;;;;21.50;40.63;99900.28;4969704;28;19914;-75
2022/09/08 00:37:10;;;;;;;;;;;;;;;21.48;40.36;99910.44;4969596;28;19921;-76
2022/09/08 00:39:36;;;;;;;;;;;;;;;21.48;40.73;99903.22;4970954;28;19914;-75
2022/09/08 00:42:01;;;;;;;;;;;;;;;21.51;40.50;99905.41;4970834;28;19914;-75
2022/09/08 00:44:40;;;;;;;;;;;;;;;21.45;41.05;99908.25;4970956;28;19921;-75
2022/09/08 00:47:17;;;;;;;;;;;;;;;21.45;41.05;99914.44;4970865;28;19921;-76
2022/09/08 00:49:43;;;;;;;;;;;;;;;21.47;40.89;99909.63;4970634;28;19925;-75
2022/09/08 00:52:10;;;;;;;;;;;;;;;21.49;40.10;99906.72;4969412;28;20371;-76
2022/09/08 00:54:35;;;;;;;;;;;;;;;21.46;41.53;99912.56;4970679;28;20418;-75
2022/09/08 00:57:01;;;;;;;;;;;;;;;21.43;41.48;99907.66;4970709;28;19914;-75
2022/09/08 00:59:26;;;;;;;;;;;;;;;21.42;39.96;99906.03;4970498;28;19921;-75
2022/09/08 01:01:52;;;;;;;;;;;;;;;21.41;40.66;99920.53;4970492;28;19915;-75
2022/09/08 01:04:18;;;;;;;;;;;;;;;21.38;40.86;99913.75;4970692;28;20378;-75
2022/09/08 01:12:53;;;;;;;;;;;;;;;21.30;40.71;99914.16;4970424;28;20360;-75
2022/09/08 01:15:21;;;;;;;;;;;;;;;21.30;40.55;99913.31;4970230;28;19953;-75
2022/09/08 01:17:47;;;;;;;;;;;;;;;21.18;40.82;99916.84;4970760;28;19957;-75
2022/09/08 01:20:13;;;;;;;;;;;;;;;21.08;40.59;99913.13;4970297;28;19929;-75
2022/09/08 01:22:57;;;;;;;;;;;;;;;20.96;40.94;99909.66;4970348;28;19914;-76
2022/09/08 01:25:53;;;;;;;;;;;;;;;20.81;41.33;99910.97;4970419;28;19918;-75
2022/09/08 01:28:18;;;;;;;;;;;;;;;20.70;40.99;99909.09;4962507;28;19914;-75
2022/09/08 01:30:46;;;;;;;;;;;;;;;20.66;41.45;99904.44;4970182;28;19918;-76
2022/09/08 01:33:12;;;;;;;;;;;;;;;20.62;41.46;99904.09;4970213;28;20415;-75
2022/09/08 01:35:38;;;;;;;;;;;;;;;20.57;41.90;99907.47;4970168;28;19929;-76
2022/09/08 01:38:04;;;;;;;;;;;;;;;20.52;42.13;99904.66;4970044;28;20386;-75
2022/09/08 01:40:29;;;;;;;;;;;;;;;20.53;41.55;99905.50;4969898;28;19918;-75
2022/09/08 01:42:55;;;;;;;;;;;;;;;20.50;40.91;99896.03;4970041;28;20010;-75
2022/09/08 01:45:20;;;;;;;;;;;;;;;20.51;41.78;99899.53;4970478;28;19937;-76
2022/09/08 01:47:45;;;;;;;;;;;;;;;20.53;41.75;99905.50;4969853;28;19971;-75
2022/09/08 01:50:10;;;;;;;;;;;;;;;20.53;41.69;99905.50;4968524;28;19929;-75
2022/09/08 01:52:36;;;;;;;;;;;;;;;20.52;41.32;99903.84;4969926;28;19984;-75
2022/09/08 01:55:02;;;;;;;;;;;;;;;20.54;41.89;99912.50;4969851;28;20407;-75
2022/09/08 01:57:27;;;;;;;;;;;;;;;20.54;42.48;99923.22;4969887;28;19918;-75
2022/09/08 01:59:53;;;;;;;;;;;;;;;20.46;41.66;99915.53;4969772;28;20296;-75
2022/09/08 02:02:18;;;;;;;;;;;;;;;20.42;41.99;99919.72;4969991;28;19921;-75
2022/09/08 02:04:43;;;;;;;;;;;;;;;20.36;41.83;99915.25;4969812;28;19953;-76
2022/09/08 02:07:09;;;;;;;;;;;;;;;20.27;42.20;99920.97;4969888;28;19953;-75
2022/09/08 02:09:34;;;;;;;;;;;;;;;20.17;42.60;99918.03;4968297;28;19989;-75
2022/09/08 02:11:59;;;;;;;;;;;;;;;20.08;43.10;99919.44;4969667;28;20395;-76
2022/09/08 02:14:25;;;;;;;;;;;;;;;19.99;42.10;99916.22;4969706;28;19967;-75
2022/09/08 02:16:50;;;;;;;;;;;;;;;19.97;41.82;99917.50;4969601;28;19929;-75
2022/09/08 02:19:15;;;;;;;;;;;;;;;19.89;42.22;99917.84;4969673;28;19979;-76
2022/09/08 02:21:40;;;;;;;;;;;;;;;19.82;42.72;99917.13;4969608;28;19914;-75
2022/09/08 02:24:06;;;;;;;;;;;;;;;19.81;41.75;99918.19;4969788;28;20378;-75
2022/09/08 02:26:31;;;;;;;;;;;;;;;19.74;43.05;99910.22;4971926;28;20402;-75
2022/09/08 02:28:57;;;;;;;;;;;;;;;19.73;42.83;99908.59;4972883;28;19957;-75
2022/09/08 02:31:23;;;;;;;;;;;;;;;19.70;43.94;99898.34;4972974;28;19927;-75
2022/09/08 02:33:48;;;;;;;;;;;;;;;19.67;44.06;99904.97;4973106;28;19921;-75
2022/09/08 02:36:14;;;;;;;;;;;;;;;19.66;43.57;99903.34;4971478;28;19914;-75
2022/09/08 02:38:39;;;;;;;;;;;;;;;19.62;44.36;99899.47;4972821;28;19965;-75
2022/09/08 02:41:06;;;;;;;;;;;;;;;19.61;43.66;99895.16;4973032;28;19914;-76
2022/09/08 02:43:31;;;;;;;;;;;;;;;19.60;44.14;99903.44;4971448;28;20019;-75
2022/09/08 02:46:02;;;;;;;;;;;;;;;19.58;43.85;99898.31;4971292;28;19976;-75
2022/09/08 02:48:27;;;;;;;;;;;;;;;19.58;43.60;99897.50;4972584;28;20001;-75
2022/09/08 02:50:52;;;;;;;;;;;;;;;19.59;44.63;99897.25;4972571;28;20040;-75
2022/09/08 02:53:18;;;;;;;;;;;;;;;19.56;44.94;99889.69;4972524;28;20386;-75
2022/09/08 02:55:43;;;;;;;;;;;;;;;19.60;44.36;99893.53;4972613;28;19921;-75
2022/09/08 02:58:09;;;;;;;;;;;;;;;19.66;43.70;99889.13;4972437;28;20008;-76
2022/09/08 03:00:36;;;;;;;;;;;;;;;19.69;43.70;99888.66;4972369;28;19929;-75
2022/09/08 03:03:02;;;;;;;;;;;;;;;19.68;43.38;99884.34;4972623;28;20001;-75
2022/09/08 03:05:28;;;;;;;;;;;;;;;19.59;44.57;99875.84;4972457;28;20409;-75
2022/09/08 03:07:53;;;;;;;;;;;;;;;19.50;45.07;99877.19;4972263;28;19918;-75
2022/09/08 03:10:23;;;;;;;;;;;;;;;19.42;45.92;99882.03;4972322;28;19976;-75
2022/09/08 03:12:48;;;;;;;;;;;;;;;19.43;44.76;99876.44;4972337;28;19914;-75
2022/09/08 03:15:13;;;;;;;;;;;;;;;19.38;44.70;99873.63;4972053;28;19979;-75
2022/09/08 03:17:39;;;;;;;;;;;;;;;19.45;43.85;99877.03;4970760;28;19922;-75
2022/09/08 03:20:04;;;;;;;;;;;;;;;19.46;43.85;99885.88;4970586;28;20009;-75
2022/09/08 03:22:30;;;;;;;;;;;;;;;19.46;45.10;99883.22;4971021;28;20368;-75
2022/09/08 03:24:56;;;;;;;;;;;;;;;19.42;45.40;99882.03;4972045;28;19914;-75
2022/09/08 03:27:21;;;;;;;;;;;;;;;19.42;44.98;99882.03;4972038;28;19914;-76
2022/09/08 03:29:46;;;;;;;;;;;;;;;19.46;44.95;99883.22;4970585;28;20047;-75
2022/09/08 03:32:11;;;;;;;;;;;;;;;19.36;45.53;99889.13;4971908;28;20307;-75
2022/09/08 03:34:37;;;;;;;;;;;;;;;19.30;45.78;99895.34;4971906;28;20310;-76
2022/09/08 03:37:02;;;;;;;;;;;;;;;19.28;44.90;99892.06;4971454;28;19924;-75
2022/09/08 03:39:27;;;;;;;;;;;;;;;19.23;44.47;99900.78;4971800;28;19914;-75
2022/09/08 03:41:53;;;;;;;;;;;;;;;19.14;45.38;99902.13;4971705;28;19929;-75
2022/09/08 03:44:19;;;;;;;;;;;;;;;19.01;45.47;99900.44;4971796;28;20395;-75
2022/09/08 03:46:44;;;;;;;;;;;;;;;19.00;45.26;99893.44;4971688;28;20402;-75
2022/09/08 03:49:11;;;;;;;;;;;;;;;19.04;44.89;99894.63;4971581;28;19914;-75
2022/09/08 03:51:36;;;;;;;;;;;;;;;19.00;45.96;99912.19;4971424;28;20405;-75
2022/09/08 03:56:48;;;;;;;;;;;;;;;18.98;45.92;99916.94;4971572;28;20310;-75
2022/09/08 03:59:13;;;;;;;;;;;;;;;18.91;45.13;99907.34;4971586;28;20391;-75
2022/09/08 04:01:39;;;;;;;;;;;;;;;18.81;45.17;99907.06;4970165;28;19914;-75
2022/09/08 04:04:04;;;;;;;;;;;;;;;18.73;46.33;99908.16;4971362;28;20302;-75
2022/09/08 04:06:30;;;;;;;;;;;;;;;18.68;46.80;99908.84;4971297;28;19918;-75
2022/09/08 04:08:56;;;;;;;;;;;;;;;18.65;46.05;99903.94;4971201;28;19929;-75
2022/09/08 04:11:21;;;;;;;;;;;;;;;18.66;46.26;99910.91;4971104;28;19925;-75
2022/09/08 04:13:47;;;;;;;;;;;;;;;18.65;45.94;99911.97;4971522;28;20001;-75
2022/09/08 04:16:12;;;;;;;;;;;;;;;18.63;46.12;99913.22;4971211;28;19914;-75
2022/09/08 04:18:37;;;;;;;;;;;;;;;18.67;46.03;99917.09;4971076;28;20442;-75
2022/09/08 04:21:04;;;;;;;;;;;;;;;18.64;45.55;99921.03;4971150;28;19971;-75
2022/09/08 04:23:30;;;;;;;;;;;;;;;18.58;46.28;99919.19;4971285;28;20280;-75
2022/09/08 04:25:56;;;;;;;;;;;;;;;18.58;45.22;99923.69;4969759;28;19921;-76
2022/09/08 04:28:21;;;;;;;;;;;;;;;18.56;46.28;99931.13;4971210;28;19914;-76
2022/09/08 04:30:46;;;;;;;;;;;;;;;18.53;45.03;99932.38;4970786;28;19926;-75
2022/09/08 04:33:12;;;;;;;;;;;;;;;18.31;46.50;99942.66;4970881;28;19918;-75
2022/09/08 04:35:37;;;;;;;;;;;;;;;18.30;46.20;99929.50;4971032;28;19914;-75
2022/09/08 04:38:02;;;;;;;;;;;;;;;18.34;47.03;99934.19;4970786;28;19914;-75
2022/09/08 04:40:27;;;;;;;;;;;;;;;18.36;46.05;99934.78;4970887;28;19967;-75
2022/09/08 04:42:53;;;;;;;;;;;;;;;18.34;46.28;99938.72;4969786;28;19921;-75
2022/09/08 04:45:19;;;;;;;;;;;;;;;18.36;45.89;99939.31;4970698;28;19914;-75
2022/09/08 04:47:45;;;;;;;;;;;;;;;18.35;46.24;99930.50;4970373;28;19918;-75
2022/09/08 04:50:10;;;;;;;;;;;;;;;18.33;46.99;99937.91;4970365;28;19925;-75
2022/09/08 04:52:35;;;;;;;;;;;;;;;18.39;47.08;99947.72;4969472;28;19936;-75
2022/09/08 04:55:02;;;;;;;;;;;;;;;18.46;45.01;99946.84;4970666;28;19914;-75
2022/09/08 04:57:28;;;;;;;;;;;;;;;18.47;45.40;99948.50;4970805;28;20394;-75
2022/09/08 04:59:54;;;;;;;;;;;;;;;18.46;46.42;99961.03;4969142;28;20008;-75
2022/09/08 05:02:19;;;;;;;;;;;;;;;18.50;46.72;99953.41;4970407;28;19961;-75
2022/09/08 05:04:45;;;;;;;;;;;;;;;18.53;46.92;99958.31;4970557;28;19915;-75
2022/09/08 05:07:10;;;;;;;;;;;;;;;18.60;46.63;99957.25;4980023;28;20366;-75
2022/09/08 05:09:35;;;;;;;;;;;;;;;18.63;46.15;99964.03;4979191;28;20381;-75
2022/09/08 05:12:01;;;;;;;;;;;;;;;18.65;46.62;99952.06;4984428;28;19929;-75
2022/09/08 05:14:26;;;;;;;;;;;;;;;18.69;46.43;99960.47;4989660;28;19921;-75
2022/09/08 05:16:51;;;;;;;;;;;;;;;18.73;45.67;99964.34;4988406;28;19913;-75
2022/09/08 05:19:17;;;;;;;;;;;;;;;18.81;46.12;99960.56;4989491;28;19928;-75
2022/09/08 05:21:42;;;;;;;;;;;;;;;18.94;45.97;99966.59;4983079;28;19926;-75
2022/09/08 05:24:07;;;;;;;;;;;;;;;19.02;46.34;99960.13;5030835;28;19912;-75
2022/09/08 05:26:33;;;;;;;;;;;;;;;19.08;45.94;99961.09;5048486;28;19917;-75
2022/09/08 05:28:58;;;;;;;;;;;;;;;19.13;46.32;99958.56;4987388;28;19917;-75
2022/09/08 05:31:25;;;;;;;;;;;;;;;19.20;45.07;99964.66;4981719;28;19922;-75
2022/09/08 05:33:51;;;;;;;;;;;;;;;19.27;45.49;99962.72;4993224;28;19917;-75
2022/09/08 05:36:18;;;;;;;;;;;;;;;19.36;46.19;99969.44;4969979;28;19957;-75
2022/09/08 05:38:44;;;;;;;;;;;;;;;19.42;45.30;99963.19;4970025;28;19919;-75
2022/09/08 05:41:10;;;;;;;;;;;;;;;19.44;44.65;99966.47;4970803;28;19918;-75
2022/09/08 05:43:36;;;;;;;;;;;;;;;19.46;44.80;99969.72;4968364;28;19914;-75
2022/09/08 05:46:01;;;;;;;;;;;;;;;19.56;45.28;99975.41;4968069;28;19922;-75
2022/09/08 05:48:27;;;;;;;;;;;;;;;19.61;44.90;99972.03;4969415;28;19915;-75
2022/09/08 05:50:53;;;;;;;;;;;;;;;19.69;44.96;99969.03;4978720;28;20375;-75
2022/09/08 05:53:18;;;;;;;;;;;;;;;19.76;45.47;99968.94;4988705;28;19917;-75
2022/09/08 05:55:53;;;;;;;;;;;;;;;19.79;44.78;99972.00;4989485;28;19921;-75
2022/09/08 05:58:18;;;;;;;;;;;;;;;19.84;44.92;99976.66;4987027;28;19929;-75
2022/09/08 06:00:44;;;;;;;;;;;;;;;19.89;44.96;99974.94;4972114;28;20315;-75
2022/09/08 06:03:10;;;;;;;;;;;;;;;19.97;44.57;99971.94;4971618;28;19914;-75
2022/09/08 06:05:35;;;;;;;;;;;;;;;20.07;44.14;99967.91;4973027;28;19971;-76
2022/09/08 06:08:00;;;;;;;;;;;;;;;20.13;44.22;99970.50;4972967;28;20355;-75
2022/09/08 06:10:25;;;;;;;;;;;;;;;20.23;44.65;99968.06;4981561;28;19921;-75
2022/09/08 06:12:51;;;;;;;;;;;;;;;20.31;44.03;99965.03;4990931;28;19920;-75
2022/09/08 06:15:17;;;;;;;;;;;;;;;20.39;43.86;99958.56;4992146;28;19976;-75
2022/09/08 06:17:42;;;;;;;;;;;;;;;20.48;44.03;99964.38;4990693;28;19921;-75
2022/09/08 06:20:08;;;;;;;;;;;;;;;20.55;43.88;99963.22;4989264;28;20382;-75
2022/09/08 06:22:34;;;;;;;;;;;;;;;20.67;44.08;99965.91;4978450;28;19961;-75
2022/09/08 06:25:00;;;;;;;;;;;;;;;20.79;43.80;99965.91;4972533;28;19964;-75
2022/09/08 06:27:31;;;;;;;;;;;;;;;20.86;43.83;99961.25;4972529;28;20382;-76
2022/09/08 06:30:07;;;;;;;;;;;;;;;20.98;43.66;99959.38;4972453;28;19914;-75
2022/09/08 06:32:53;;;;;;;;;;;;;;;21.10;43.24;99965.53;4974879;28;19972;-75
2022/09/08 06:35:36;;;;;;;;;;;;;;;21.22;42.77;99957.47;4969619;28;19920;-75
2022/09/08 06:38:04;;;;;;;;;;;;;;;21.33;42.84;99956.63;4976482;28;19914;-75
2022/09/08 06:40:33;;;;;;;;;;;;;;;21.47;42.80;99958.00;4970481;28;19940;-75
2022/09/08 06:43:04;;;;;;;;;;;;;;;21.58;42.29;99960.91;4978228;28;19920;-77
2022/09/08 06:45:32;;;;;;;;;;;;;;;21.67;42.52;99957.59;4979778;28;19971;-75
2022/09/08 06:48:04;;;;;;;;;;;;;;;21.77;42.20;99960.47;4988548;28;19913;-75
2022/09/08 06:50:33;;;;;;;;;;;;;;;21.87;41.85;99965.22;4983848;28;19921;-75
2022/09/08 06:53:01;;;;;;;;;;;;;;;21.95;42.13;99959.44;4989596;28;19920;-75
2022/09/08 06:55:48;;;;;;;;;;;;;;;22.03;42.05;99969.03;4981887;28;19918;-75
2022/09/08 06:58:30;;;;;;;;;;;;;;;22.10;41.73;99962.44;4983592;28;20295;-75
2022/09/08 07:00:55;;;;;;;;;;;;;;;22.18;41.39;99953.97;4982641;28;20430;-75
2022/09/08 07:03:23;;;;;;;;;;;;;;;22.25;41.65;99959.16;4985733;28;20020;-77
2022/09/08 07:05:49;;;;;;;;;;;;;;;22.34;41.25;99959.63;4978762;28;20306;-75
2022/09/08 07:08:33;;;;;;;;;;;;;;;22.40;41.55;99961.31;4986819;28;20401;-75
2022/09/08 07:11:13;;;;;;;;;;;;;;;22.48;42.22;99955.53;4988321;28;20008;-75
2022/09/08 07:13:41;;;;;;;;;;;;;;;22.57;41.28;99964.81;4991354;28;19961;-75
2022/09/08 07:16:18;;;;;;;;;;;;;;;22.59;41.05;99984.22;4990344;28;20456;-75
2022/09/08 07:18:49;;;;;;;;;;;;;;;22.67;41.33;99970.34;4988338;28;20360;-75
2022/09/08 07:21:41;;;;;;;;;;;;;;;22.74;40.92;99965.59;4989299;28;19920;-75
2022/09/08 07:24:10;;;;;;;;;;;;;;;22.79;41.06;99964.88;4967585;28;20390;-75
2022/09/08 07:26:38;;;;;;;;;;;;;;;22.87;41.08;99969.03;4990946;28;19918;-75
2022/09/08 07:29:27;;;;;;;;;;;;;;;22.97;40.94;99967.31;4984058;28;20349;-75
2022/09/08 07:31:52;;;;;;;;;;;;;;;23.13;40.17;99968.34;4981225;28;19928;-75
2022/09/08 07:34:20;;;;;;;;;;;;;;;23.23;40.49;99968.47;4989903;28;20004;-75
2022/09/08 07:36:50;;;;;;;;;;;;;;;23.36;40.57;99961.91;4982215;28;19918;-77
2022/09/08 07:39:26;;;;;;;;;;;;;;;23.47;39.99;99966.34;4970720;28;19914;-75
2022/09/08 07:41:53;;;;;;;;;;;;;;;23.58;40.17;99970.00;4978921;28;19960;-75
2022/09/08 07:44:19;;;;;;;;;;;;;;;23.61;39.84;99956.81;4988966;28;19922;-74
2022/09/08 07:46:50;;;;;;;;;;;;;;;23.70;40.20;99962.56;4986319;28;19925;-75
2022/09/08 07:49:26;;;;;;;;;;;;;;;23.77;39.08;99964.00;4984185;28;19918;-75
2022/09/08 07:52:00;;;;;;;;;;;;;;;23.82;39.15;99970.53;4976371;28;20422;-75
2022/09/08 07:54:44;;;;;;;;;;;;;;;23.76;39.00;99965.06;4971222;28;19957;-75
2022/09/08 07:57:13;;;;;;;;;;;;;;;23.83;38.86;99961.38;4982079;28;19918;-75
2022/09/08 08:00:17;;;;;;;;;;;;;;;23.96;38.90;99964.47;4980255;28;20383;-75
2022/09/08 08:02:42;;;;;;;;;;;;;;;24.06;38.08;99955.66;4943385;29;19927;-76
2022/09/08 08:05:26;;;;;;;;;;;;;;;24.19;38.28;99957.13;4928318;29;19919;-75
2022/09/08 08:07:58;;;;;;;;;;;;;;;24.30;37.69;99958.88;4945230;28;19926;-75
2022/09/08 08:10:27;;;;;;;;;;;;;;;24.41;37.42;99952.47;4976706;28;19936;-75
2022/09/08 08:13:00;;;;;;;;;;;;;;;24.57;37.48;99950.72;5022046;28;19921;-75
2022/09/08 08:15:28;;;;;;;;;;;;;;;24.65;36.80;99948.34;4988667;28;19917;-76
2022/09/08 08:18:06;;;;;;;;;;;;;;;24.73;34.58;99944.34;4989238;28;19913;-75
2022/09/08 08:20:36;;;;;;;;;;;;;;;24.84;35.54;99950.59;4983370;28;19929;-76
2022/09/08 08:23:23;;;;;;;;;;;;;;;24.97;35.99;99953.69;4983247;28;19918;-75
2022/09/08 08:25:51;;;;;;;;;;;;;;;25.12;35.63;99950.25;4972222;28;19925;-75
2022/09/08 08:28:18;;;;;;;;;;;;;;;25.25;35.79;99949.75;4989534;28;20394;-75
2022/09/08 08:31:02;;;;;;;;;;;;;;;25.41;35.71;99942.53;4987484;28;19922;-76
2022/09/08 08:33:32;;;;;;;;;;;;;;;25.47;34.45;99946.06;4968067;28;19914;-76
2022/09/08 08:36:03;;;;;;;;;;;;;;;25.58;35.41;99943.13;4968443;28;19925;-76
2022/09/08 08:38:37;;;;;;;;;;;;;;;25.72;34.66;99935.34;4980363;28;19935;-76
2022/09/08 08:41:06;;;;;;;;;;;;;;;25.91;34.65;99939.16;4979155;28;19926;-75
2022/09/08 08:43:44;;;;;;;;;;;;;;;26.07;34.90;99940.00;4984760;28;19957;-75
2022/09/08 08:46:15;;;;;;;;;;;;;;;26.30;34.22;99938.63;4969464;28;20052;-76
2022/09/08 08:48:51;;;;;;;;;;;;;;;26.48;33.63;99929.97;4968841;28;19922;-76
2022/09/08 08:51:35;;;;;;;;;;;;;;;26.66;33.37;99927.78;4968604;28;20011;-76
2022/09/08 08:54:07;;;;;;;;;;;;;;;26.90;33.44;99924.22;4981492;28;19984;-76
2022/09/08 08:56:41;;;;;;;;;;;;;;;27.11;32.57;99924.16;4989424;28;19914;-76
2022/09/08 08:59:18;;;;;;;;;;;;;;;27.23;33.05;99917.34;4968927;28;20306;-76
2022/09/08 09:02:00;;;;;;;;;;;;;;;27.36;32.74;99909.69;4970211;28;19968;-76
2022/09/08 09:04:25;;;;;;;;;;;;;;;27.50;32.69;99903.38;4970452;28;19921;-76
2022/09/08 09:06:59;;;;;;;;;;;;;;;27.63;32.16;99893.84;4972226;28;19918;-76
2022/09/08 09:09:45;;;;;;;;;;;;;;;27.69;32.69;99892.69;4971856;28;20306;-76
2022/09/08 09:12:29;;;;;;;;;;;;;;;27.78;31.59;99887.47;4976245;28;19975;-76
2022/09/08 09:14:54;;;;;;;;;;;;;;;27.91;31.49;99889.56;4979621;28;19918;-76
2022/09/08 09:17:20;;;;;;;;;;;;;;;28.05;31.25;99881.56;4970072;28;19940;-76
2022/09/08 09:20:01;;;;;;;;;;;;;;;28.11;32.19;99881.22;4969988;28;20364;-76
2022/09/08 09:22:33;;;;;;;;;;;;;;;28.25;31.59;99877.91;4968806;28;19914;-75
2022/09/08 09:25:17;;;;;;;;;;;;;;;28.30;31.25;99875.13;4971140;28;19924;-75
2022/09/08 09:27:44;;;;;;;;;;;;;;;28.51;31.15;99876.53;4968690;28;20290;-76
2022/09/08 09:30:17;;;;;;;;;;;;;;;28.64;30.79;99870.41;4981829;28;19971;-76
2022/09/08 09:32:51;;;;;;;;;;;;;;;28.95;31.08;99873.59;4986673;28;19925;-75
2022/09/08 09:35:32;;;;;;;;;;;;;;;29.16;29.97;99871.47;4981053;28;19925;-76
2022/09/08 09:38:06;;;;;;;;;;;;;;;29.33;29.73;99870.94;4982052;28;19950;-75
2022/09/08 09:40:43;;;;;;;;;;;;;;;29.49;29.91;99869.66;4974298;28;19914;-76
2022/09/08 09:43:18;;;;;;;;;;;;;;;29.73;29.46;99853.25;4994692;28;19914;-76
2022/09/08 09:45:52;;;;;;;;;;;;;;;29.99;29.67;99854.44;4988370;28;19929;-76
2022/09/08 09:48:36;;;;;;;;;;;;;;;30.07;29.47;99858.41;4987852;28;19960;-78
2022/09/08 09:51:07;;;;;;;;;;;;;;;30.22;28.14;99847.25;4988830;28;19928;-76
2022/09/08 09:53:35;;;;;;;;;;;;;;;30.42;29.22;99842.53;4976181;28;19961;-77
2022/09/08 09:56:19;;;;;;;;;;;;;;;30.67;28.74;99839.34;4974733;28;19921;-76
2022/09/08 09:58:44;;;;;;;;;;;;;;;30.81;28.41;99842.06;4987303;28;19918;-77
2022/09/08 10:01:09;;;;;;;;;;;;;;;30.86;28.83;99839.22;4991647;28;20408;-76
2022/09/08 10:03:53;;;;;;;;;;;;;;;30.88;26.97;99837.81;4995431;28;20378;-77
2022/09/08 10:06:41;;;;;;;;;;;;;;;31.08;27.34;99833.84;4993161;28;20413;-77
2022/09/08 10:09:15;;;;;;;;;;;;;;;31.33;27.65;99834.44;4986202;28;19925;-77
2022/09/08 10:11:59;;;;;;;;;;;;;;;31.57;27.46;99827.56;4974596;28;19926;-77
2022/09/08 10:14:28;;;;;;;;;;;;;;;31.82;27.75;99831.59;4998030;28;19922;-77
2022/09/08 10:16:59;;;;;;;;;;;;;;;31.95;26.48;99823.63;4974574;28;20418;-77
2022/09/08 10:19:54;;;;;;;;;;;;;;;32.09;26.63;99825.19;4975817;28;20080;-77
2022/09/08 10:22:42;;;;;;;;;;;;;;;32.29;26.34;99821.13;4967000;28;19922;-77
2022/09/08 10:25:27;;;;;;;;;;;;;;;32.28;25.37;99815.97;4973805;28;20290;-78
2022/09/08 10:28:01;;;;;;;;;;;;;;;32.26;27.59;99813.56;4982354;28;19918;-77
2022/09/08 10:30:26;;;;;;;;;;;;;;;32.35;27.03;99814.41;4979398;28;19956;-77
2022/09/08 10:33:04;;;;;;;;;;;;;;;32.41;25.68;99815.06;4982053;28;20429;-77
2022/09/08 10:35:29;;;;;;;;;;;;;;;32.41;24.59;99812.34;4989852;28;19913;-77
2022/09/08 10:38:13;;;;;;;;;;;;;;;32.50;25.29;99805.78;4974432;28;19914;-77
2022/09/08 10:40:42;;;;;;;;;;;;;;;32.54;26.40;99798.53;4979916;28;20314;-77
2022/09/08 10:43:30;;;;;;;;;;;;;;;32.69;26.08;99799.22;4993534;28;20326;-78
2022/09/08 10:45:55;;;;;;;;;;;;;;;32.85;23.85;99784.03;4973905;28;19918;-76
2022/09/08 10:48:21;;;;;;;;;;;;;;;32.96;24.84;99793.53;4971188;28;20391;-77
2022/09/08 10:50:50;;;;;;;;;;;;;;;33.14;24.99;99786.94;4970370;28;20040;-77
2022/09/08 10:53:15;;;;;;;;;;;;;;;33.31;23.92;99774.41;4972301;28;19999;-77
2022/09/08 10:55:59;;;;;;;;;;;;;;;33.41;25.01;99788.56;4986873;28;20396;-77
2022/09/08 10:58:24;;;;;;;;;;;;;;;33.32;23.89;99773.28;4980478;28;19925;-77
2022/09/08 11:00:49;;;;;;;;;;;;;;;33.43;24.29;99760.84;4971351;28;20379;-77
2022/09/08 11:03:53;;;;;;;;;;;;;;;33.42;24.84;99768.25;4973297;28;20302;-76
2022/09/08 11:06:36;;;;;;;;;;;;;;;33.45;23.18;99762.19;4946297;29;19919;-77
2022/09/08 11:09:17;;;;;;;;;;;;;;;33.60;23.61;99758.13;4934600;29;19961;-77
2022/09/08 11:11:42;;;;;;;;;;;;;;;33.89;24.21;99757.41;4973629;28;19968;-76
2022/09/08 11:14:39;;;;;;;;;;;;;;;33.96;23.74;99752.22;4989750;28;19957;-76
2022/09/08 11:17:24;;;;;;;;;;;;;;;34.07;23.09;99747.19;4984583;28;19921;-77
2022/09/08 11:20:02;;;;;;;;;;;;;;;33.93;23.81;99738.38;4973245;28;19979;-77
2022/09/08 11:22:27;;;;;;;;;;;;;;;34.02;23.68;99734.47;4972254;28;20306;-77
2022/09/08 11:25:12;;;;;;;;;;;;;;;34.12;22.23;99736.03;4971736;28;19925;-77
2022/09/08 11:27:37;;;;;;;;;;;;;;;34.24;22.95;99727.13;4981808;28;19924;-77
2022/09/08 11:30:03;;;;;;;;;;;;;;;34.27;21.63;99710.03;4981705;28;19922;-77
2022/09/08 11:32:38;;;;;;;;;;;;;;;34.42;23.83;99723.19;4973269;28;19918;-77
2022/09/08 11:35:22;;;;;;;;;;;;;;;34.54;23.39;99720.53;4971713;28;20403;-77
2022/09/08 11:37:53;;;;;;;;;;;;;;;34.61;22.34;99720.00;4970283;28;19914;-76
2022/09/08 11:40:24;;;;;;;;;;;;;;;34.66;21.57;99723.34;4971576;28;19921;-77
2022/09/08 11:42:58;;;;;;;;;;;;;;;34.72;22.40;99712.97;4971707;28;19921;-76
2022/09/08 11:45:23;;;;;;;;;;;;;;;34.74;21.32;99714.25;4970277;28;19928;-76
2022/09/08 11:47:56;;;;;;;;;;;;;;;34.74;21.08;99713.44;4973929;28;19918;-77
2022/09/08 11:50:22;;;;;;;;;;;;;;;34.71;21.48;99714.91;4990546;28;19921;-77
2022/09/08 11:52:50;;;;;;;;;;;;;;;34.74;22.62;99708.75;4990791;28;20027;-77
2022/09/08 11:55:24;;;;;;;;;;;;;;;34.70;23.30;99696.84;4990613;28;20362;-77
2022/09/08 11:58:05;;;;;;;;;;;;;;;34.78;21.71;99705.34;4990565;28;19913;-77
2022/09/08 12:00:49;;;;;;;;;;;;;;;34.67;22.90;99691.22;4971389;28;19967;-77
2022/09/08 12:03:23;;;;;;;;;;;;;;;34.63;23.01;99693.03;4971470;28;19914;-77
2022/09/08 12:05:48;;;;;;;;;;;;;;;34.61;21.29;99693.38;4970957;28;19920;-77
2022/09/08 12:08:33;;;;;;;;;;;;;;;34.51;22.46;99684.75;4970761;28;19997;-77
2022/09/08 12:11:07;;;;;;;;;;;;;;;34.38;22.31;99690.16;4976296;28;19922;-77
2022/09/08 12:13:39;;;;;;;;;;;;;;;34.26;22.79;99689.25;4990332;28;20416;-77
2022/09/08 12:16:04;;;;;;;;;;;;;;;34.07;22.46;99684.97;4990588;28;20428;-77
2022/09/08 12:18:42;;;;;;;;;;;;;;;34.00;23.29;99683.88;4979965;28;19922;-77
2022/09/08 12:21:07;;;;;;;;;;;;;;;33.79;22.89;99676.38;4971167;28;19972;-77
2022/09/08 12:23:32;;;;;;;;;;;;;;;33.66;22.42;99679.31;4969741;28;19968;-77
2022/09/08 12:25:57;;;;;;;;;;;;;;;33.60;24.03;99675.16;4971018;28;19937;-76
2022/09/08 12:28:26;;;;;;;;;;;;;;;33.42;22.16;99674.38;4969748;28;20314;-76
2022/09/08 12:30:51;;;;;;;;;;;;;;;33.44;23.35;99672.13;4984800;28;19922;-76
2022/09/08 12:33:20;;;;;;;;;;;;;;;33.45;23.14;99673.75;4988582;28;19920;-76
2022/09/08 12:35:50;;;;;;;;;;;;;;;33.43;22.59;99671.31;4990003;28;19947;-77
2022/09/08 12:38:41;;;;;;;;;;;;;;;33.40;23.94;99673.91;4989788;28;19916;-77
2022/09/08 12:41:23;;;;;;;;;;;;;;;33.28;21.06;99669.09;4990095;28;19920;-77
2022/09/08 12:43:54;;;;;;;;;;;;;;;33.28;22.34;99662.81;4990414;28;19914;-77
2022/09/08 12:46:22;;;;;;;;;;;;;;;33.23;22.77;99655.56;4990056;28;19975;-77
2022/09/08 12:49:00;;;;;;;;;;;;;;;33.30;22.65;99658.66;4988648;28;19948;-77
2022/09/08 12:51:30;;;;;;;;;;;;;;;33.30;22.26;99661.38;4989994;28;20004;-77
2022/09/08 12:54:03;;;;;;;;;;;;;;;33.36;22.17;99660.06;4990003;28;20317;-77
2022/09/08 12:56:28;;;;;;;;;;;;;;;33.46;22.17;99667.97;4988605;28;19914;-77
2022/09/08 12:59:13;;;;;;;;;;;;;;;33.52;22.25;99654.91;4989806;28;19928;-77
2022/09/08 13:01:45;;;;;;;;;;;;;;;33.60;21.92;99654.06;4989965;28;19921;-77
2022/09/08 13:04:29;;;;;;;;;;;;;;;33.59;21.34;99646.97;4990174;28;19928;-77
2022/09/08 13:07:17;;;;;;;;;;;;;;;33.65;21.50;99647.59;4990026;28;19918;-77
2022/09/08 13:09:51;;;;;;;;;;;;;;;33.80;21.75;99638.81;4984254;28;19918;-77
2022/09/08 13:12:22;;;;;;;;;;;;;;;33.95;21.14;99646.50;4989878;28;19925;-77